Time;durP1;ratioP1;P1;durP2;ratioP2;P2;SDS_P1;SDS_P2;PMS_P1;PMS_P2;Temp;Humidity;BMP_temperature;BMP_pressure;BME280_temperature;BME280_humidity;BME280_pressure;Samples;Min_cycle;Max_cycle;Signal;HPM_P1;HPM_P2
2021/01/23 00:02:10;;;;;;;16.30;8.10;;;5.00;89.50;;;;;;5075478;28;20875;-71
2021/01/23 00:04:37;;;;;;;14.47;9.00;;;5.00;89.50;;;;;;5075796;28;20464;-72
2021/01/23 00:07:03;;;;;;;16.93;8.93;;;5.00;89.50;;;;;;5075743;28;20448;-72
2021/01/23 00:09:29;;;;;;;14.97;8.20;;;5.00;89.50;;;;;;5076279;28;20444;-71
2021/01/23 00:11:56;;;;;;;15.67;9.50;;;5.00;89.50;;;;;;5075325;28;20456;-71
2021/01/23 00:14:23;;;;;;;16.83;9.27;;;5.00;89.50;;;;;;5075568;28;20491;-72
2021/01/23 00:16:50;;;;;;;13.63;8.67;;;5.10;89.50;;;;;;5075552;28;20444;-71
2021/01/23 00:19:16;;;;;;;13.43;8.33;;;5.10;89.40;;;;;;5075547;28;20436;-71
2021/01/23 00:21:42;;;;;;;14.90;9.20;;;5.10;89.10;;;;;;5075482;28;20452;-71
2021/01/23 00:24:08;;;;;;;15.07;8.67;;;5.10;89.10;;;;;;5075318;28;20554;-71
2021/01/23 00:26:35;;;;;;;15.43;9.17;;;5.10;88.90;;;;;;5076223;28;20832;-72
2021/01/23 00:29:02;;;;;;;14.50;8.90;;;5.10;88.90;;;;;;5075368;28;20500;-72
2021/01/23 00:31:28;;;;;;;17.33;9.23;;;5.20;88.80;;;;;;5075390;28;20445;-71
2021/01/23 00:33:54;;;;;;;16.67;8.60;;;5.10;88.40;;;;;;5075233;28;20468;-71
2021/01/23 00:36:20;;;;;;;14.97;8.33;;;5.10;88.30;;;;;;5075248;28;20425;-71
2021/01/23 00:38:47;;;;;;;12.80;7.57;;;5.10;88.40;;;;;;5074855;28;20999;-72
2021/01/23 00:41:13;;;;;;;14.27;6.60;;;5.00;88.50;;;;;;5074843;28;20987;-72
2021/01/23 00:43:39;;;;;;;12.97;7.90;;;5.00;89.50;;;;;;5074966;28;20485;-71
2021/01/23 00:46:06;;;;;;;14.13;6.53;;;5.00;89.10;;;;;;5075072;28;20433;-72
2021/01/23 00:48:33;;;;;;;16.80;8.10;;;5.00;89.30;;;;;;5074981;28;20460;-72
2021/01/23 00:50:59;;;;;;;11.27;5.63;;;5.00;89.50;;;;;;5074950;28;20448;-72
2021/01/23 00:53:25;;;;;;;12.20;6.17;;;5.00;89.70;;;;;;5074864;28;20521;-72
2021/01/23 00:55:51;;;;;;;12.30;7.37;;;5.00;89.60;;;;;;5074843;28;20444;-72
2021/01/23 00:58:17;;;;;;;15.00;6.07;;;5.00;89.80;;;;;;5074594;28;20445;-72
2021/01/23 01:00:43;;;;;;;12.40;6.10;;;5.00;89.70;;;;;;5074744;28;20445;-72
2021/01/23 01:03:11;;;;;;;8.77;6.27;;;5.00;89.80;;;;;;5074220;28;20484;-72
2021/01/23 01:05:37;;;;;;;6.73;4.13;;;5.10;89.80;;;;;;5074631;28;20467;-72
2021/01/23 01:08:03;;;;;;;11.40;5.50;;;5.10;90.20;;;;;;5074584;28;20498;-72
2021/01/23 01:10:30;;;;;;;9.30;5.70;;;5.10;89.70;;;;;;5074410;28;20545;-72
2021/01/23 01:12:56;;;;;;;10.30;5.40;;;5.10;89.80;;;;;;5074452;28;20456;-72
2021/01/23 01:15:22;;;;;;;9.13;5.50;;;5.10;89.90;;;;;;5074474;28;20440;-72
2021/01/23 01:17:48;;;;;;;13.23;5.93;;;5.10;89.80;;;;;;5074405;28;20490;-72
2021/01/23 01:20:15;;;;;;;10.13;5.27;;;5.20;89.70;;;;;;5074069;28;20452;-72
2021/01/23 01:22:42;;;;;;;9.20;4.40;;;5.10;89.50;;;;;;5074737;28;20461;-72
2021/01/23 01:25:09;;;;;;;8.40;4.40;;;5.10;89.70;;;;;;5073963;28;20519;-72
2021/01/23 01:27:35;;;;;;;5.53;4.73;;;5.10;90.10;;;;;;5073945;28;20444;-72
2021/01/23 01:30:02;;;;;;;8.00;5.47;;;5.10;89.50;;;;;;5074150;28;20471;-72
2021/01/23 01:32:28;;;;;;;10.50;4.50;;;5.10;89.60;;;;;;5073792;28;20437;-72
2021/01/23 01:34:54;;;;;;;7.37;4.93;;;5.10;89.80;;;;;;5074022;28;20483;-72
2021/01/23 01:37:21;;;;;;;9.90;4.90;;;5.10;89.80;;;;;;5074047;28;20452;-72
2021/01/23 01:39:47;;;;;;;10.43;5.13;;;5.10;89.80;;;;;;5074013;28;20440;-72
2021/01/23 01:42:13;;;;;;;8.23;4.63;;;5.10;89.80;;;;;;5073556;28;20502;-72
2021/01/23 01:44:39;;;;;;;5.40;4.10;;;5.10;89.90;;;;;;5073827;28;20460;-72
2021/01/23 01:47:06;;;;;;;6.07;4.70;;;5.20;90.00;;;;;;5073532;28;20510;-72
2021/01/23 01:49:32;;;;;;;8.87;5.50;;;5.20;90.10;;;;;;5073824;28;20441;-72
2021/01/23 01:51:58;;;;;;;8.00;4.70;;;5.20;90.10;;;;;;5073787;28;20472;-72
2021/01/23 01:54:26;;;;;;;9.40;5.40;;;5.20;90.20;;;;;;5073697;28;20468;-72
2021/01/23 01:56:52;;;;;;;7.10;6.40;;;5.20;90.10;;;;;;5073747;28;20448;-72
2021/01/23 01:59:19;;;;;;;7.93;5.80;;;5.10;89.90;;;;;;5073723;28;20444;-72
2021/01/23 02:01:45;;;;;;;10.17;5.77;;;5.10;90.00;;;;;;5073679;28;20441;-72
2021/01/23 02:04:27;;;;;;;12.40;6.77;;;5.00;89.80;;;;;;5073188;28;20488;-72
2021/01/23 02:07:02;;;;;;;10.23;5.37;;;5.00;90.10;;;;;;5073677;28;20451;-72
2021/01/23 02:09:44;;;;;;;12.50;6.10;;;4.90;90.20;;;;;;5073658;28;20453;-72
2021/01/23 02:12:19;;;;;;;8.53;5.97;;;4.90;90.30;;;;;;5073201;28;20542;-72
2021/01/23 02:14:53;;;;;;;9.83;6.27;;;4.80;90.60;;;;;;5072815;28;20464;-72
2021/01/23 02:17:25;;;;;;;7.10;6.03;;;4.80;90.10;;;;;;5073556;28;20469;-72
2021/01/23 02:20:12;;;;;;;10.17;6.70;;;4.80;90.30;;;;;;5073189;28;20903;-72
2021/01/23 02:23:09;;;;;;;7.37;6.50;;;4.80;90.40;;;;;;5073053;28;20468;-72
2021/01/23 02:25:45;;;;;;;10.73;6.20;;;4.70;90.50;;;;;;5073579;28;20844;-72
2021/01/23 02:28:17;;;;;;;7.30;6.13;;;4.70;90.50;;;;;;5073503;28;20425;-72
2021/01/23 02:30:54;;;;;;;9.90;6.63;;;4.70;90.60;;;;;;5073452;28;20429;-71
2021/01/23 02:33:22;;;;;;;9.30;6.33;;;4.70;90.50;;;;;;5073363;28;20460;-72
2021/01/23 02:35:50;;;;;;;11.60;6.90;;;4.80;90.50;;;;;;5073012;28;20452;-72
2021/01/23 02:38:16;;;;;;;7.83;5.77;;;4.70;90.60;;;;;;5073345;28;20455;-72
2021/01/23 02:40:43;;;;;;;9.00;5.87;;;4.70;90.60;;;;;;5073275;28;20444;-72
2021/01/23 02:43:10;;;;;;;11.40;6.03;;;4.70;90.60;;;;;;5073099;28;20481;-72
2021/01/23 02:45:36;;;;;;;7.07;5.77;;;4.70;90.80;;;;;;5073236;28;20447;-72
2021/01/23 02:48:04;;;;;;;7.83;5.87;;;4.70;90.80;;;;;;5072936;28;20441;-71
2021/01/23 02:50:31;;;;;;;10.50;6.53;;;4.70;90.80;;;;;;5072899;28;20965;-72
2021/01/23 02:53:06;;;;;;;8.33;6.70;;;4.70;90.80;;;;;;5073071;28;20461;-71
2021/01/23 02:55:36;;;;;;;6.93;6.23;;;4.80;90.80;;;;;;5073976;28;20770;-71
2021/01/23 02:58:04;;;;;;;11.20;6.07;;;4.80;90.70;;;;;;5073185;28;20444;-71
2021/01/23 03:00:32;;;;;;;6.80;5.70;;;4.80;90.70;;;;;;5073140;28;20436;-72
2021/01/23 03:03:00;;;;;;;9.97;5.97;;;4.80;90.70;;;;;;5073110;28;20484;-72
2021/01/23 03:05:29;;;;;;;11.30;5.40;;;4.80;90.70;;;;;;5073110;28;20440;-72
2021/01/23 03:07:56;;;;;;;10.20;6.47;;;4.80;90.60;;;;;;5073003;28;20499;-72
2021/01/23 03:10:37;;;;;;;15.27;7.00;;;4.80;90.60;;;;;;5072861;28;20467;-72
2021/01/23 03:13:03;;;;;;;10.10;6.50;;;4.80;90.60;;;;;;5072920;28;20461;-71
2021/01/23 03:15:30;;;;;;;12.13;6.80;;;4.80;90.50;;;;;;5072919;28;20471;-71
2021/01/23 03:17:56;;;;;;;11.70;6.07;;;4.80;90.50;;;;;;5072874;28;20448;-72
2021/01/23 03:20:22;;;;;;;8.37;5.90;;;4.80;90.40;;;;;;5072882;28;20452;-71
2021/01/23 03:22:49;;;;;;;14.33;6.67;;;4.80;90.40;;;;;;5072722;28;20488;-71
2021/01/23 03:25:16;;;;;;;7.43;5.53;;;4.90;90.40;;;;;;5072950;28;20440;-71
2021/01/23 03:27:42;;;;;;;7.97;5.10;;;4.80;90.30;;;;;;5076195;28;21005;-71
2021/01/23 03:30:09;;;;;;;10.80;6.47;;;4.80;90.30;;;;;;5076495;28;20444;-71
2021/01/23 03:32:35;;;;;;;8.97;6.20;;;4.90;90.30;;;;;;5076407;28;20444;-71
2021/01/23 03:35:04;;;;;;;7.23;4.83;;;4.80;90.20;;;;;;5076313;28;20464;-71
2021/01/23 03:37:30;;;;;;;8.07;5.43;;;4.80;90.30;;;;;;5076358;28;20453;-72
2021/01/23 03:39:57;;;;;;;9.10;4.93;;;4.80;90.70;;;;;;5076003;28;20942;-72
2021/01/23 03:42:23;;;;;;;5.50;4.77;;;4.70;90.40;;;;;;5076224;28;20441;-71
2021/01/23 03:44:49;;;;;;;7.10;5.00;;;4.70;90.50;;;;;;5076154;28;20471;-71
2021/01/23 03:47:15;;;;;;;6.80;4.83;;;4.70;90.50;;;;;;5076182;28;20445;-71
2021/01/23 03:49:41;;;;;;;6.80;4.77;;;4.60;90.70;;;;;;5075858;28;20436;-71
2021/01/23 03:52:08;;;;;;;5.30;4.80;;;4.60;90.80;;;;;;5076133;28;20453;-71
2021/01/23 03:54:34;;;;;;;7.43;6.03;;;4.60;90.80;;;;;;5076014;28;20460;-71
2021/01/23 03:57:01;;;;;;;6.57;4.07;;;4.60;90.90;;;;;;5076009;28;20787;-71
2021/01/23 03:59:27;;;;;;;5.10;4.53;;;4.60;90.90;;;;;;5075946;28;20449;-71
2021/01/23 04:01:53;;;;;;;9.83;4.93;;;4.50;90.90;;;;;;5075959;28;20440;-71
2021/01/23 04:04:19;;;;;;;6.17;4.70;;;4.50;91.00;;;;;;5075430;28;20998;-71
2021/01/23 04:06:46;;;;;;;9.33;5.33;;;4.50;91.00;;;;;;5075803;28;20449;-71
2021/01/23 04:09:12;;;;;;;4.90;4.40;;;4.50;91.10;;;;;;5075474;28;20931;-71
2021/01/23 04:11:38;;;;;;;6.60;5.00;;;4.50;91.40;;;;;;5075611;28;20461;-72
2021/01/23 04:14:05;;;;;;;6.10;4.83;;;4.40;91.00;;;;;;5075623;28;20457;-72
2021/01/23 04:16:31;;;;;;;6.00;5.30;;;4.50;91.20;;;;;;5075674;28;20452;-71
2021/01/23 04:18:58;;;;;;;7.47;5.23;;;4.40;91.30;;;;;;5075654;28;20444;-71
2021/01/23 04:21:24;;;;;;;6.20;4.53;;;4.30;91.60;;;;;;5075672;28;20443;-71
2021/01/23 04:23:50;;;;;;;6.03;5.40;;;4.30;91.40;;;;;;5075970;28;20550;-71
2021/01/23 04:26:16;;;;;;;5.10;4.60;;;4.40;91.40;;;;;;5075185;28;20444;-72
2021/01/23 04:28:42;;;;;;;12.23;6.00;;;4.30;91.40;;;;;;5075411;28;20452;-72
2021/01/23 04:31:09;;;;;;;6.47;5.63;;;4.30;91.50;;;;;;5075443;28;20503;-72
2021/01/23 04:33:36;;;;;;;7.10;5.17;;;4.40;91.60;;;;;;5075255;28;20468;-72
2021/01/23 04:36:02;;;;;;;7.40;5.47;;;4.40;91.60;;;;;;5075309;28;20810;-72
2021/01/23 04:38:29;;;;;;;6.97;5.60;;;4.40;91.60;;;;;;5074559;28;20525;-73
2021/01/23 04:40:55;;;;;;;7.20;5.33;;;4.30;91.40;;;;;;5075181;28;20520;-73
2021/01/23 04:43:22;;;;;;;9.13;6.30;;;4.40;91.70;;;;;;5075033;28;20484;-73
2021/01/23 04:45:49;;;;;;;8.77;5.93;;;4.40;91.60;;;;;;5075124;28;20444;-73
2021/01/23 04:48:16;;;;;;;9.27;6.33;;;4.40;91.70;;;;;;5075042;28;20451;-72
2021/01/23 04:50:43;;;;;;;8.60;6.03;;;4.40;91.70;;;;;;5074682;28;20947;-72
2021/01/23 04:53:09;;;;;;;9.50;6.80;;;4.40;91.70;;;;;;5074523;28;20845;-72
2021/01/23 04:55:35;;;;;;;7.80;5.40;;;4.50;91.80;;;;;;5074872;28;20451;-72
2021/01/23 04:58:02;;;;;;;9.80;6.40;;;4.50;91.70;;;;;;5074901;28;20543;-72
2021/01/23 05:00:29;;;;;;;10.10;5.43;;;4.50;91.70;;;;;;5074862;28;20452;-72
2021/01/23 05:02:59;;;;;;;7.93;6.20;;;4.50;91.80;;;;;;5074662;28;20465;-72
2021/01/23 05:05:26;;;;;;;8.17;6.53;;;4.60;91.60;;;;;;5074977;28;20443;-73
2021/01/23 05:07:53;;;;;;;8.97;6.40;;;4.50;91.50;;;;;;5074331;28;20934;-73
2021/01/23 05:10:23;;;;;;;10.63;6.60;;;4.50;91.70;;;;;;5074484;28;20457;-73
2021/01/23 05:12:50;;;;;;;11.00;6.53;;;4.60;92.00;;;;;;5074494;28;20525;-73
2021/01/23 05:15:21;;;;;;;9.10;6.80;;;4.60;92.10;;;;;;5074466;28;20447;-73
2021/01/23 05:17:53;;;;;;;9.93;7.40;;;4.60;92.00;;;;;;5074520;28;20440;-72
2021/01/23 05:20:38;;;;;;;9.87;5.97;;;4.60;92.00;;;;;;5074538;28;20468;-72
2021/01/23 05:23:06;;;;;;;7.53;5.90;;;4.70;92.10;;;;;;5074198;28;20502;-72
2021/01/23 05:25:33;;;;;;;8.90;6.40;;;4.70;92.10;;;;;;5074266;28;20437;-72
2021/01/23 05:28:01;;;;;;;14.97;7.20;;;4.70;92.30;;;;;;5074242;28;20444;-72
2021/01/23 05:30:40;;;;;;;7.60;6.80;;;4.70;92.30;;;;;;5074175;28;20444;-72
2021/01/23 05:33:08;;;;;;;7.40;5.50;;;4.70;92.10;;;;;;5074122;28;20829;-72
2021/01/23 05:35:36;;;;;;;7.50;6.23;;;4.70;92.10;;;;;;5074064;28;20498;-72
2021/01/23 05:38:23;;;;;;;9.37;6.50;;;4.70;92.10;;;;;;5074030;28;20474;-72
2021/01/23 05:40:53;;;;;;;10.80;7.67;;;4.70;92.10;;;;;;5074005;28;20440;-72
2021/01/23 05:43:33;;;;;;;15.13;6.67;;;4.70;92.20;;;;;;5073847;28;20510;-72
2021/01/23 05:46:02;;;;;;;8.20;6.57;;;4.70;92.20;;;;;;5074016;28;20440;-72
2021/01/23 05:48:28;;;;;;;9.60;7.27;;;4.60;92.10;;;;;;5073428;28;20816;-72
2021/01/23 05:50:55;;;;;;;11.37;6.60;;;4.50;92.10;;;;;;5073161;28;20440;-72
2021/01/23 05:53:22;;;;;;;7.93;6.53;;;4.50;92.30;;;;;;5073755;28;20468;-72
2021/01/23 05:55:48;;;;;;;10.00;6.80;;;4.60;92.40;;;;;;5073780;28;20456;-72
2021/01/23 05:58:14;;;;;;;8.40;6.87;;;4.60;92.40;;;;;;5073724;28;20470;-72
2021/01/23 06:00:41;;;;;;;8.90;5.83;;;4.60;92.50;;;;;;5073686;28;20448;-72
2021/01/23 06:03:07;;;;;;;8.80;6.33;;;4.60;92.50;;;;;;5073559;28;20488;-72
2021/01/23 06:05:34;;;;;;;7.07;5.70;;;4.60;92.40;;;;;;5073645;28;20502;-72
2021/01/23 06:08:01;;;;;;;7.43;6.70;;;4.70;92.50;;;;;;5073713;28;20461;-72
2021/01/23 06:10:42;;;;;;;9.17;7.60;;;4.70;92.50;;;;;;5073197;28;20860;-72
2021/01/23 06:13:41;;;;;;;7.70;6.10;;;4.70;92.40;;;;;;5073588;28;20528;-72
2021/01/23 06:16:37;;;;;;;7.67;5.80;;;4.70;92.40;;;;;;5073621;28;20424;-72
2021/01/23 06:19:38;;;;;;;6.47;5.57;;;4.80;92.50;;;;;;5073561;28;20421;-72
2021/01/23 06:22:05;;;;;;;10.90;6.73;;;4.80;92.40;;;;;;5073489;28;20536;-72
2021/01/23 06:24:50;;;;;;;6.60;6.00;;;4.80;92.50;;;;;;5073347;28;20903;-72
2021/01/23 06:27:17;;;;;;;7.93;5.20;;;4.80;92.40;;;;;;5073434;28;20441;-72
2021/01/23 06:29:44;;;;;;;7.53;5.60;;;4.90;92.40;;;;;;5073421;28;20449;-72
2021/01/23 06:32:29;;;;;;;8.13;6.00;;;4.90;92.30;;;;;;5073412;28;20448;-72
2021/01/23 06:34:58;;;;;;;7.87;6.00;;;4.90;92.30;;;;;;5073353;28;20463;-72
2021/01/23 06:37:29;;;;;;;8.37;6.23;;;5.00;92.20;;;;;;5073314;28;20515;-72
2021/01/23 06:40:11;;;;;;;6.13;5.50;;;5.00;92.20;;;;;;5073424;28;20451;-72
2021/01/23 06:42:39;;;;;;;10.60;6.17;;;4.90;92.20;;;;;;5072971;28;20938;-72
2021/01/23 06:45:20;;;;;;;6.90;6.17;;;5.00;92.20;;;;;;5073261;28;20448;-72
2021/01/23 06:47:48;;;;;;;10.73;6.33;;;5.00;92.20;;;;;;5073251;28;20449;-71
2021/01/23 06:50:27;;;;;;;7.67;6.27;;;5.00;92.20;;;;;;5073252;28;20441;-71
2021/01/23 06:52:53;;;;;;;8.53;5.83;;;5.00;92.30;;;;;;5073153;28;20790;-71
2021/01/23 06:55:42;;;;;;;8.40;6.10;;;5.00;92.20;;;;;;5073680;28;20444;-71
2021/01/23 06:58:16;;;;;;;9.23;6.53;;;5.10;92.60;;;;;;5072852;28;20946;-71
2021/01/23 07:00:43;;;;;;;8.30;6.07;;;5.00;92.20;;;;;;5073918;28;20436;-72
2021/01/23 07:03:10;;;;;;;8.90;5.97;;;5.00;92.20;;;;;;5076951;28;20484;-72
2021/01/23 07:05:45;;;;;;;9.30;6.27;;;5.00;92.30;;;;;;5076683;28;20961;-72
2021/01/23 07:08:23;;;;;;;7.53;5.90;;;5.10;92.40;;;;;;5077894;28;20477;-72
2021/01/23 07:11:10;;;;;;;8.97;6.37;;;5.10;92.30;;;;;;5077964;28;20464;-72
2021/01/23 07:13:37;;;;;;;9.23;6.27;;;5.10;92.20;;;;;;5076731;28;20456;-72
2021/01/23 07:16:04;;;;;;;14.17;6.83;;;5.10;92.10;;;;;;5076950;28;20444;-72
2021/01/23 07:18:31;;;;;;;7.87;5.40;;;5.10;92.00;;;;;;5076375;28;20891;-72
2021/01/23 07:20:57;;;;;;;7.87;5.80;;;5.10;92.00;;;;;;5076718;28;20447;-72
2021/01/23 07:23:23;;;;;;;7.50;6.30;;;5.10;91.90;;;;;;5076511;28;20534;-72
2021/01/23 07:25:50;;;;;;;10.63;6.60;;;5.10;91.80;;;;;;5076349;28;20938;-72
2021/01/23 07:28:18;;;;;;;9.27;6.73;;;5.10;91.80;;;;;;5076540;28;20441;-72
2021/01/23 07:30:45;;;;;;;8.67;5.80;;;5.10;91.70;;;;;;5076232;28;20939;-71
2021/01/23 07:33:11;;;;;;;7.37;6.30;;;5.00;91.80;;;;;;5076406;28;20464;-72
2021/01/23 07:35:39;;;;;;;7.60;6.20;;;5.00;91.90;;;;;;5076415;28;20502;-72
2021/01/23 07:38:06;;;;;;;8.67;6.30;;;5.00;92.00;;;;;;5076219;28;21072;-72
2021/01/23 07:40:35;;;;;;;7.80;6.50;;;5.00;91.90;;;;;;5076353;28;20444;-72
2021/01/23 07:43:03;;;;;;;9.33;6.10;;;5.00;91.80;;;;;;5075855;28;20480;-72
2021/01/23 07:45:31;;;;;;;8.17;6.03;;;4.90;91.90;;;;;;5076239;28;20447;-71
2021/01/23 07:47:58;;;;;;;9.70;6.47;;;5.00;91.90;;;;;;5076188;28;20449;-71
2021/01/23 07:50:25;;;;;;;9.40;6.90;;;4.90;92.00;;;;;;5076143;28;20440;-72
2021/01/23 07:52:51;;;;;;;8.93;6.47;;;4.90;92.20;;;;;;5076062;28;20448;-72
2021/01/23 07:55:18;;;;;;;9.90;6.80;;;4.90;92.20;;;;;;5076038;28;20455;-72
2021/01/23 07:58:05;;;;;;;12.03;5.90;;;4.90;92.20;;;;;;5076002;28;20490;-72
2021/01/23 08:00:32;;;;;;;8.90;5.97;;;4.90;92.20;;;;;;5076086;28;20439;-72
2021/01/23 08:02:58;;;;;;;8.67;7.03;;;4.90;92.10;;;;;;5075522;28;20490;-72
2021/01/23 08:05:43;;;;;;;9.13;6.40;;;4.90;92.10;;;;;;5075941;28;20447;-71
2021/01/23 08:08:10;;;;;;;9.60;7.17;;;4.90;92.10;;;;;;5075928;28;20434;-72
2021/01/23 08:10:37;;;;;;;8.63;6.63;;;4.90;92.10;;;;;;5075579;28;20475;-72
2021/01/23 08:13:05;;;;;;;9.73;6.60;;;4.90;92.00;;;;;;5074691;28;20456;-71
2021/01/23 08:15:34;;;;;;;9.23;6.40;;;4.90;92.00;;;;;;5075669;28;20463;-71
2021/01/23 08:18:01;;;;;;;8.43;6.47;;;4.90;92.00;;;;;;5075657;28;20448;-71
2021/01/23 08:20:33;;;;;;;8.50;5.63;;;4.90;92.30;;;;;;5075626;28;20494;-71
2021/01/23 08:23:03;;;;;;;8.43;6.80;;;4.90;92.10;;;;;;5075392;28;20421;-71
2021/01/23 08:25:31;;;;;;;10.10;7.30;;;4.90;92.10;;;;;;5075539;28;20520;-71
2021/01/23 08:27:58;;;;;;;12.53;7.00;;;4.90;92.10;;;;;;5075457;28;20444;-71
2021/01/23 08:30:26;;;;;;;11.13;7.87;;;4.90;92.10;;;;;;5075480;28;20444;-71
2021/01/23 08:32:54;;;;;;;10.37;7.00;;;5.00;92.10;;;;;;5075562;28;20451;-71
2021/01/23 08:35:20;;;;;;;10.20;6.37;;;5.00;92.10;;;;;;5075380;28;20437;-71
2021/01/23 08:37:48;;;;;;;7.97;5.83;;;5.00;92.10;;;;;;5075329;28;20571;-71
2021/01/23 08:40:17;;;;;;;9.80;6.70;;;5.10;92.10;;;;;;5075252;28;20449;-71
2021/01/23 08:42:44;;;;;;;7.83;5.57;;;5.10;92.00;;;;;;5075073;28;20421;-71
2021/01/23 08:45:11;;;;;;;10.70;6.70;;;5.10;91.90;;;;;;5075252;28;20476;-71
2021/01/23 08:47:38;;;;;;;7.50;5.90;;;5.10;91.90;;;;;;5074807;28;20462;-72
2021/01/23 08:50:06;;;;;;;8.13;6.53;;;5.20;92.00;;;;;;5074998;28;20440;-71
2021/01/23 08:52:32;;;;;;;11.40;7.20;;;5.20;92.00;;;;;;5075015;28;20478;-71
2021/01/23 08:54:58;;;;;;;11.13;7.40;;;5.30;91.90;;;;;;5074855;28;20456;-72
2021/01/23 08:57:25;;;;;;;8.53;6.00;;;5.40;91.90;;;;;;5074559;28;20947;-73
2021/01/23 08:59:51;;;;;;;6.30;5.33;;;5.50;91.80;;;;;;5074852;28;20425;-72
2021/01/23 09:02:18;;;;;;;8.47;5.63;;;5.60;91.70;;;;;;5074442;28;20437;-71
2021/01/23 09:04:44;;;;;;;9.90;6.27;;;5.60;91.50;;;;;;5074574;28;20477;-71
2021/01/23 09:07:11;;;;;;;7.30;5.97;;;5.70;91.50;;;;;;5074645;28;20806;-71
2021/01/23 09:09:37;;;;;;;9.13;6.13;;;5.80;91.20;;;;;;5074335;28;20440;-71
2021/01/23 09:12:05;;;;;;;7.50;5.80;;;5.80;91.10;;;;;;5074298;28;20449;-72
2021/01/23 09:14:31;;;;;;;16.17;5.80;;;5.90;91.10;;;;;;5074203;28;20982;-71
2021/01/23 09:16:57;;;;;;;10.40;6.43;;;6.00;91.10;;;;;;5074491;28;20514;-72
2021/01/23 09:19:24;;;;;;;6.73;5.63;;;6.00;90.90;;;;;;5074182;28;20425;-72
2021/01/23 09:21:50;;;;;;;12.63;6.10;;;6.10;90.80;;;;;;5074377;28;20812;-71
2021/01/23 09:24:18;;;;;;;8.23;5.80;;;6.20;90.80;;;;;;5073993;28;20473;-71
2021/01/23 09:26:44;;;;;;;7.37;5.23;;;6.20;90.60;;;;;;5074028;28;20947;-71
2021/01/23 09:29:11;;;;;;;11.90;6.00;;;6.30;90.40;;;;;;5074250;28;20429;-71
2021/01/23 09:31:38;;;;;;;7.83;5.90;;;6.30;90.40;;;;;;5074300;28;20445;-71
2021/01/23 09:34:04;;;;;;;5.83;5.10;;;6.40;90.30;;;;;;5074100;28;20460;-71
2021/01/23 09:36:31;;;;;;;7.50;5.77;;;6.40;90.10;;;;;;5073814;28;20922;-70
2021/01/23 09:38:58;;;;;;;8.83;6.40;;;6.40;90.20;;;;;;5074109;28;20478;-71
2021/01/23 09:41:25;;;;;;;8.20;6.50;;;6.50;90.10;;;;;;5074147;28;20442;-71
2021/01/23 09:43:51;;;;;;;8.47;5.50;;;6.50;90.10;;;;;;5073871;28;20485;-70
2021/01/23 09:46:18;;;;;;;7.83;6.50;;;6.50;90.10;;;;;;5073968;28;20493;-75
2021/01/23 09:48:44;;;;;;;9.03;6.40;;;6.50;90.10;;;;;;5073922;28;20502;-70
2021/01/23 09:51:10;;;;;;;6.33;5.03;;;6.50;90.10;;;;;;5073617;28;20444;-70
2021/01/23 09:53:36;;;;;;;9.20;6.10;;;6.60;90.20;;;;;;5073794;28;20498;-70
2021/01/23 09:56:02;;;;;;;9.17;6.10;;;6.70;90.10;;;;;;5074031;28;20449;-69
2021/01/23 09:58:29;;;;;;;9.23;5.77;;;6.80;90.00;;;;;;5073772;28;20464;-69
2021/01/23 10:00:56;;;;;;;8.07;5.63;;;6.90;89.70;;;;;;5073720;28;20441;-70
2021/01/23 10:03:22;;;;;;;8.30;5.80;;;7.10;89.30;;;;;;5073258;28;20817;-70
2021/01/23 10:05:48;;;;;;;8.40;5.03;;;7.20;88.90;;;;;;5073690;28;20452;-70
2021/01/23 10:08:14;;;;;;;10.43;5.60;;;7.30;88.60;;;;;;5073300;28;20448;-70
2021/01/23 10:10:40;;;;;;;5.57;4.53;;;7.40;88.30;;;;;;5073490;28;20897;-70
2021/01/23 10:13:07;;;;;;;5.00;3.97;;;7.60;87.20;;;;;;5073488;28;20467;-69
2021/01/23 10:15:34;;;;;;;6.50;3.73;;;7.60;85.20;;;;;;5073528;28;20444;-70
2021/01/23 10:18:00;;;;;;;4.63;4.17;;;7.70;84.10;;;;;;5073501;28;20448;-70
2021/01/23 10:20:27;;;;;;;12.60;4.40;;;7.60;83.10;;;;;;5073535;28;20485;-70
2021/01/23 10:22:53;;;;;;;6.30;4.73;;;7.70;83.30;;;;;;5073313;28;20451;-70
2021/01/23 10:25:20;;;;;;;8.70;4.07;;;7.80;83.80;;;;;;5073440;28;20444;-70
2021/01/23 10:27:47;;;;;;;5.60;4.70;;;7.90;82.70;;;;;;5073737;28;20429;-71
2021/01/23 10:30:14;;;;;;;6.63;4.40;;;8.00;82.70;;;;;;5073467;28;20534;-71
2021/01/23 10:32:41;;;;;;;6.47;4.57;;;8.20;82.10;;;;;;5073412;28;20479;-71
2021/01/23 10:35:08;;;;;;;5.97;4.50;;;8.30;81.40;;;;;;5074863;28;20428;-71
2021/01/23 10:37:35;;;;;;;6.37;4.53;;;8.40;80.80;;;;;;5079943;28;20441;-71
2021/01/23 10:40:01;;;;;;;5.90;3.10;;;8.60;79.90;;;;;;5080019;28;20448;-72
2021/01/23 10:42:27;;;;;;;5.57;2.97;;;8.70;77.70;;;;;;5080015;28;20546;-71
2021/01/23 10:44:53;;;;;;;6.00;3.40;;;8.80;76.80;;;;;;5079773;28;20570;-71
2021/01/23 10:47:19;;;;;;;3.40;2.50;;;8.90;76.30;;;;;;5079945;28;20435;-70
2021/01/23 10:49:46;;;;;;;3.13;2.50;;;9.00;76.00;;;;;;5079921;28;20452;-71
2021/01/23 10:52:13;;;;;;;5.20;2.50;;;9.00;75.80;;;;;;5079496;28;20432;-71
2021/01/23 10:54:39;;;;;;;4.50;2.97;;;9.00;75.10;;;;;;5079759;28;20460;-70
2021/01/23 10:57:06;;;;;;;6.03;3.30;;;9.10;73.90;;;;;;5079829;28;20451;-72
2021/01/23 10:59:32;;;;;;;4.33;2.70;;;9.00;72.90;;;;;;5079906;28;20863;-72
2021/01/23 11:01:59;;;;;;;5.07;2.47;;;9.00;72.60;;;;;;5079479;28;20942;-71
2021/01/23 11:04:25;;;;;;;7.30;3.03;;;8.90;72.70;;;;;;5079631;28;20483;-72
2021/01/23 11:06:53;;;;;;;5.80;3.10;;;8.80;72.90;;;;;;5079786;28;20424;-71
2021/01/23 11:09:19;;;;;;;4.80;2.40;;;8.90;73.50;;;;;;5079699;28;20444;-71
2021/01/23 11:11:45;;;;;;;5.00;2.90;;;9.00;73.90;;;;;;5079258;28;20463;-72
2021/01/23 11:14:11;;;;;;;3.73;2.60;;;9.00;73.10;;;;;;5079291;28;20974;-73
2021/01/23 11:16:37;;;;;;;6.83;4.40;;;9.10;72.60;;;;;;5079632;28;20444;-71
2021/01/23 11:19:04;;;;;;;4.60;2.73;;;9.10;72.40;;;;;;5079593;28;20448;-70
2021/01/23 11:21:30;;;;;;;5.33;2.80;;;9.20;72.30;;;;;;5079308;28;20969;-71
2021/01/23 11:23:57;;;;;;;6.53;2.77;;;9.40;72.10;;;;;;5079444;28;20491;-72
2021/01/23 11:26:23;;;;;;;3.47;2.70;;;9.50;70.00;;;;;;5079596;28;20441;-70
2021/01/23 11:28:49;;;;;;;3.20;2.33;;;9.60;69.70;;;;;;5079548;28;20440;-72
2021/01/23 11:31:16;;;;;;;4.67;2.40;;;9.60;69.30;;;;;;5079514;28;20498;-72
2021/01/23 11:33:42;;;;;;;5.43;3.23;;;9.60;69.60;;;;;;5079435;28;20551;-73
2021/01/23 11:36:09;;;;;;;2.83;2.40;;;9.60;69.40;;;;;;5079463;28;20459;-72
2021/01/23 11:38:35;;;;;;;3.63;2.80;;;9.60;69.00;;;;;;5079510;28;20810;-74
2021/01/23 11:41:02;;;;;;;5.00;3.00;;;9.60;69.00;;;;;;5079516;28;20444;-73
2021/01/23 11:43:28;;;;;;;5.97;3.27;;;9.60;69.60;;;;;;5079358;28;20476;-72
2021/01/23 11:45:55;;;;;;;4.43;2.30;;;9.60;70.00;;;;;;5079428;28;20494;-72
2021/01/23 11:48:21;;;;;;;4.30;2.97;;;9.50;69.90;;;;;;5076513;28;20451;-72
2021/01/23 11:50:47;;;;;;;5.40;3.47;;;9.60;70.50;;;;;;5076145;28;20452;-72
2021/01/23 11:53:13;;;;;;;7.10;4.50;;;9.70;70.60;;;;;;5076068;28;20509;-72
2021/01/23 11:55:40;;;;;;;5.23;3.57;;;9.80;70.20;;;;;;5077220;28;20798;-73
2021/01/23 11:58:07;;;;;;;6.70;2.67;;;10.00;68.50;;;;;;5076084;28;20440;-72
2021/01/23 12:00:34;;;;;;;5.00;3.10;;;10.00;67.90;;;;;;5075722;28;20957;-73
2021/01/23 12:03:00;;;;;;;5.43;3.40;;;10.10;67.90;;;;;;5075971;28;20444;-74
2021/01/23 12:05:28;;;;;;;4.73;3.30;;;10.10;68.20;;;;;;5075933;28;20440;-74
2021/01/23 12:07:54;;;;;;;4.07;2.80;;;10.10;68.00;;;;;;5075550;28;20805;-74
2021/01/23 12:10:20;;;;;;;6.77;3.67;;;10.10;67.60;;;;;;5075616;28;20811;-74
2021/01/23 12:12:47;;;;;;;9.03;3.20;;;10.00;67.60;;;;;;5075755;28;20474;-74
2021/01/23 12:15:16;;;;;;;7.00;3.43;;;10.00;67.60;;;;;;5075798;28;20437;-73
2021/01/23 12:17:42;;;;;;;5.30;3.10;;;9.90;68.80;;;;;;5075778;28;20437;-73
2021/01/23 12:20:10;;;;;;;3.37;2.70;;;9.90;69.30;;;;;;5075687;28;20489;-74
2021/01/23 12:22:37;;;;;;;4.50;3.50;;;9.90;70.10;;;;;;5075351;28;20537;-74
2021/01/23 12:25:04;;;;;;;4.90;3.30;;;9.90;70.50;;;;;;5075426;28;20484;-74
2021/01/23 12:27:30;;;;;;;3.53;3.23;;;9.90;70.40;;;;;;5075446;28;20445;-73
2021/01/23 12:29:56;;;;;;;5.03;2.70;;;10.00;68.80;;;;;;5075663;28;20440;-74
2021/01/23 12:32:23;;;;;;;3.37;3.07;;;10.00;68.50;;;;;;5075407;28;20449;-74
2021/01/23 12:34:50;;;;;;;3.83;3.53;;;10.00;68.30;;;;;;5075330;28;20492;-74
2021/01/23 12:37:16;;;;;;;3.77;2.77;;;10.00;67.70;;;;;;5075393;28;20448;-74
2021/01/23 12:39:42;;;;;;;5.27;3.30;;;9.90;68.40;;;;;;5075236;28;20448;-73
2021/01/23 12:42:08;;;;;;;4.60;3.03;;;9.90;68.80;;;;;;5074936;28;20433;-74
2021/01/23 12:44:34;;;;;;;3.23;2.63;;;9.90;68.80;;;;;;5075096;28;20488;-74
2021/01/23 12:47:00;;;;;;;5.00;3.20;;;10.00;67.70;;;;;;5074859;28;20429;-74
2021/01/23 12:49:27;;;;;;;3.73;2.73;;;10.00;67.80;;;;;;5075083;28;20444;-74
2021/01/23 12:51:54;;;;;;;3.40;2.40;;;10.10;67.60;;;;;;5075157;28;20447;-74
2021/01/23 12:54:20;;;;;;;3.40;2.63;;;10.40;66.70;;;;;;5075067;28;20460;-74
2021/01/23 12:56:46;;;;;;;5.90;2.93;;;10.70;65.80;;;;;;5074796;28;20939;-74
2021/01/23 12:59:12;;;;;;;2.97;2.43;;;11.30;64.60;;;;;;5074471;28;20426;-74